PWSweather.com
Personal Weather Stations
Station Observations
WAIROAHB
Wairoa, Northern Hawkes Bay -NZ 4108

WairoaNorthern Hawkes Bay -NZ 4108

Lat: -39.04516934, Lon: 177.4263989

Elevation: 156

Station Type: WS3083

http://wairoa.net/weather/index.htm

High Low Average
Temperature 91.6°F33.1°C 55.9°F13.3°C 73.1°F22.8°C
Dew Point 65.4°F18.6°C 54.6°F12.6°C 57.3°F14.1°C
Winds 13.0 mph 20.9 kmh Calm Calm 5.0 mph WSW8.0 kmh WSW
Wind Gusts 22.8 mph36.7 kmh 1.6 mph2.6 kmh 9.0 mph14.5 kmh
Humidity 99% 32% 62%
Pressure 29.79 in1008.8 mb 29.58 in1001.7 mb -
Precipitation 0.00 in0.0 mm - -
Hour Temp Dew Point Humidity Winds Wind Gusts Pressure Precip Precip Rate Daily Precip Total
12:00 AM 59.2°F15.1°C 57.5°F14.2°C 94% 3.1 mph NW5.0 kmh NW 4.5 mph7.2 kmh 29.79 in1008.8 mb 0.00 in0.0 mm 0.00 in0.0 mm 0.00 in0.0 mm
12:10 AM 58.5°F14.7°C 57.0°F13.9°C 95% Calm Calm 4.5 mph7.2 kmh 29.79 in1008.8 mb 0.00 in0.0 mm 0.00 in0.0 mm 0.00 in0.0 mm
12:20 AM 58.3°F14.6°C 56.9°F13.8°C 95% 0.7 mph NW1.1 kmh NW 1.6 mph2.6 kmh 29.79 in1008.8 mb 0.00 in0.0 mm 0.00 in0.0 mm 0.00 in0.0 mm
12:30 AM 58.1°F14.5°C 56.7°F13.7°C 95% 2.2 mph NW3.5 kmh NW 3.8 mph6.1 kmh 29.79 in1008.8 mb 0.00 in0.0 mm 0.00 in0.0 mm 0.00 in0.0 mm
12:40 AM 58.1°F14.5°C 57.0°F13.9°C 96% Calm Calm 4.5 mph7.2 kmh 29.78 in1008.5 mb 0.00 in0.0 mm 0.00 in0.0 mm 0.00 in0.0 mm
12:50 AM 58.5°F14.7°C 57.3°F14.1°C 96% 3.1 mph NW5.0 kmh NW 4.5 mph7.2 kmh 29.78 in1008.5 mb 0.00 in0.0 mm 0.00 in0.0 mm 0.00 in0.0 mm
01:00 AM 58.5°F14.7°C 57.3°F14.1°C 96% 2.2 mph NW3.5 kmh NW 4.5 mph7.2 kmh 29.77 in1008.1 mb 0.00 in0.0 mm 0.00 in0.0 mm 0.00 in0.0 mm
01:10 AM 58.5°F14.7°C 57.3°F14.1°C 96% 2.2 mph NW3.5 kmh NW 4.5 mph7.2 kmh 29.77 in1008.1 mb 0.00 in0.0 mm 0.00 in0.0 mm 0.00 in0.0 mm
01:20 AM 58.3°F14.6°C 57.2°F14.0°C 96% 2.2 mph NW3.5 kmh NW 3.8 mph6.1 kmh 29.77 in1008.1 mb 0.00 in0.0 mm 0.00 in0.0 mm 0.00 in0.0 mm
01:30 AM 58.3°F14.6°C 57.2°F14.0°C 96% 1.6 mph NW2.6 kmh NW 4.5 mph7.2 kmh 29.77 in1008.1 mb 0.00 in0.0 mm 0.00 in0.0 mm 0.00 in0.0 mm
01:40 AM 58.3°F14.6°C 57.2°F14.0°C 96% 3.1 mph NW5.0 kmh NW 3.8 mph6.1 kmh 29.77 in1008.1 mb 0.00 in0.0 mm 0.00 in0.0 mm 0.00 in0.0 mm
01:50 AM 58.5°F14.7°C 57.3°F14.1°C 96% 1.6 mph NW2.6 kmh NW 4.5 mph7.2 kmh 29.77 in1008.1 mb 0.00 in0.0 mm 0.00 in0.0 mm 0.00 in0.0 mm
02:00 AM 58.3°F14.6°C 57.2°F14.0°C 96% 2.2 mph NW3.5 kmh NW 4.5 mph7.2 kmh 29.77 in1008.1 mb 0.00 in0.0 mm 0.00 in0.0 mm 0.00 in0.0 mm
02:10 AM 58.1°F14.5°C 57.3°F14.1°C 97% 3.1 mph NW5.0 kmh NW 4.5 mph7.2 kmh 29.76 in1007.8 mb 0.00 in0.0 mm 0.00 in0.0 mm 0.00 in0.0 mm
02:20 AM 57.7°F14.3°C 56.9°F13.8°C 97% 0.7 mph NW1.1 kmh NW 5.4 mph8.7 kmh 29.76 in1007.8 mb 0.00 in0.0 mm 0.00 in0.0 mm 0.00 in0.0 mm
02:30 AM 57.4°F14.1°C 56.5°F13.6°C 97% Calm Calm 2.2 mph3.5 kmh 29.76 in1007.8 mb 0.00 in0.0 mm 0.00 in0.0 mm 0.00 in0.0 mm
02:40 AM 57.7°F14.3°C 57.2°F14.0°C 98% 1.6 mph NW2.6 kmh NW 5.4 mph8.7 kmh 29.76 in1007.8 mb 0.00 in0.0 mm 0.00 in0.0 mm 0.00 in0.0 mm
02:50 AM 57.4°F14.1°C 56.8°F13.8°C 98% 2.2 mph WNW3.5 kmh WNW 4.5 mph7.2 kmh 29.76 in1007.8 mb 0.00 in0.0 mm 0.00 in0.0 mm 0.00 in0.0 mm
03:00 AM 57.0°F13.9°C 56.8°F13.8°C 99% 1.6 mph NW2.6 kmh NW 3.8 mph6.1 kmh 29.75 in1007.5 mb 0.00 in0.0 mm 0.00 in0.0 mm 0.00 in0.0 mm
03:10 AM 56.8°F13.8°C 56.6°F13.7°C 99% 2.2 mph NNW3.5 kmh NNW 3.8 mph6.1 kmh 29.75 in1007.5 mb 0.00 in0.0 mm 0.00 in0.0 mm 0.00 in0.0 mm
03:20 AM 57.0°F13.9°C 56.8°F13.8°C 99% 3.1 mph NW5.0 kmh NW 6.0 mph9.7 kmh 29.75 in1007.5 mb 0.00 in0.0 mm 0.00 in0.0 mm 0.00 in0.0 mm
03:30 AM 57.2°F14.0°C 56.9°F13.8°C 99% 2.2 mph NW3.5 kmh NW 5.4 mph8.7 kmh 29.75 in1007.5 mb 0.00 in0.0 mm 0.00 in0.0 mm 0.00 in0.0 mm
03:40 AM 57.2°F14.0°C 56.9°F13.8°C 99% 2.2 mph NW3.5 kmh NW 4.5 mph7.2 kmh 29.75 in1007.5 mb 0.00 in0.0 mm 0.00 in0.0 mm 0.00 in0.0 mm
03:50 AM 57.2°F14.0°C 56.7°F13.7°C 98% 2.2 mph NW3.5 kmh NW 5.4 mph8.7 kmh 29.75 in1007.5 mb 0.00 in0.0 mm 0.00 in0.0 mm 0.00 in0.0 mm
04:00 AM 57.2°F14.0°C 56.7°F13.7°C 98% 2.2 mph NW3.5 kmh NW 5.4 mph8.7 kmh 29.75 in1007.5 mb 0.00 in0.0 mm 0.00 in0.0 mm 0.00 in0.0 mm
04:10 AM 57.2°F14.0°C 56.7°F13.7°C 98% 2.2 mph NW3.5 kmh NW 3.8 mph6.1 kmh 29.76 in1007.8 mb 0.00 in0.0 mm 0.00 in0.0 mm 0.00 in0.0 mm
04:20 AM 57.0°F13.9°C 56.8°F13.8°C 99% 2.2 mph NW3.5 kmh NW 4.5 mph7.2 kmh 29.76 in1007.8 mb 0.00 in0.0 mm 0.00 in0.0 mm 0.00 in0.0 mm
04:30 AM 56.8°F13.8°C 56.6°F13.7°C 99% 2.2 mph NW3.5 kmh NW 5.4 mph8.7 kmh 29.76 in1007.8 mb 0.00 in0.0 mm 0.00 in0.0 mm 0.00 in0.0 mm
04:40 AM 56.7°F13.7°C 56.4°F13.6°C 99% 3.1 mph NW5.0 kmh NW 6.0 mph9.7 kmh 29.76 in1007.8 mb 0.00 in0.0 mm 0.00 in0.0 mm 0.00 in0.0 mm
04:50 AM 56.7°F13.7°C 56.4°F13.6°C 99% 2.2 mph NW3.5 kmh NW 6.0 mph9.7 kmh 29.76 in1007.8 mb 0.00 in0.0 mm 0.00 in0.0 mm 0.00 in0.0 mm
05:00 AM 56.5°F13.6°C 56.2°F13.4°C 99% 3.1 mph NW5.0 kmh NW 5.4 mph8.7 kmh 29.76 in1007.8 mb 0.00 in0.0 mm 0.00 in0.0 mm 0.00 in0.0 mm
05:10 AM 56.1°F13.4°C 55.9°F13.3°C 99% 3.1 mph NW5.0 kmh NW 4.5 mph7.2 kmh 29.77 in1008.1 mb 0.00 in0.0 mm 0.00 in0.0 mm 0.00 in0.0 mm
05:20 AM 55.9°F13.3°C 55.7°F13.2°C 99% 2.2 mph NW3.5 kmh NW 5.4 mph8.7 kmh 29.77 in1008.1 mb 0.00 in0.0 mm 0.00 in0.0 mm 0.00 in0.0 mm
05:30 AM 56.5°F13.6°C 56.2°F13.4°C 99% 2.2 mph NW3.5 kmh NW 5.4 mph8.7 kmh 29.77 in1008.1 mb 0.00 in0.0 mm 0.00 in0.0 mm 0.00 in0.0 mm
05:40 AM 57.6°F14.2°C 57.3°F14.1°C 99% 3.1 mph NW5.0 kmh NW 6.0 mph9.7 kmh 29.77 in1008.1 mb 0.00 in0.0 mm 0.00 in0.0 mm 0.00 in0.0 mm
05:50 AM 58.6°F14.8°C 57.8°F14.3°C 97% 3.8 mph NNW6.1 kmh NNW 6.0 mph9.7 kmh 29.76 in1007.8 mb 0.00 in0.0 mm 0.00 in0.0 mm 0.00 in0.0 mm
06:00 AM 59.7°F15.4°C 58.0°F14.4°C 94% 5.4 mph NNW8.7 kmh NNW 6.0 mph9.7 kmh 29.76 in1007.8 mb 0.00 in0.0 mm 0.00 in0.0 mm 0.00 in0.0 mm
06:10 AM 61.0°F16.1°C 57.7°F14.3°C 89% 3.1 mph NW5.0 kmh NW 6.9 mph11.1 kmh 29.76 in1007.8 mb 0.00 in0.0 mm 0.00 in0.0 mm 0.00 in0.0 mm
06:20 AM 61.9°F16.6°C 57.7°F14.3°C 86% 4.5 mph NNW7.2 kmh NNW 8.3 mph13.4 kmh 29.76 in1007.8 mb 0.00 in0.0 mm 0.00 in0.0 mm 0.00 in0.0 mm
06:30 AM 62.2°F16.8°C 57.7°F14.3°C 85% 4.5 mph N7.2 kmh N 9.8 mph15.8 kmh 29.76 in1007.8 mb 0.00 in0.0 mm 0.00 in0.0 mm 0.00 in0.0 mm
06:40 AM 63.1°F17.3°C 57.6°F14.2°C 82% 5.4 mph N8.7 kmh N 8.3 mph13.4 kmh 29.75 in1007.5 mb 0.00 in0.0 mm 0.00 in0.0 mm 0.00 in0.0 mm
06:50 AM 64.2°F17.9°C 58.3°F14.6°C 81% 4.5 mph N7.2 kmh N 8.3 mph13.4 kmh 29.76 in1007.8 mb 0.00 in0.0 mm 0.00 in0.0 mm 0.00 in0.0 mm
07:00 AM 64.9°F18.3°C 57.9°F14.4°C 78% 4.5 mph N7.2 kmh N 9.2 mph14.8 kmh 29.76 in1007.8 mb 0.00 in0.0 mm 0.00 in0.0 mm 0.00 in0.0 mm
07:10 AM 65.7°F18.7°C 58.6°F14.8°C 78% 6.0 mph N9.7 kmh N 9.2 mph14.8 kmh 29.76 in1007.8 mb 0.00 in0.0 mm 0.00 in0.0 mm 0.00 in0.0 mm
07:20 AM 67.1°F19.5°C 58.9°F14.9°C 75% 5.4 mph NNW8.7 kmh NNW 8.3 mph13.4 kmh 29.76 in1007.8 mb 0.00 in0.0 mm 0.00 in0.0 mm 0.00 in0.0 mm
07:30 AM 68.0°F20.0°C 59.4°F15.2°C 74% 6.0 mph N9.7 kmh N 9.2 mph14.8 kmh 29.75 in1007.5 mb 0.00 in0.0 mm 0.00 in0.0 mm 0.00 in0.0 mm
07:40 AM 68.5°F20.3°C 59.6°F15.3°C 73% 5.4 mph NW8.7 kmh NW 9.2 mph14.8 kmh 29.76 in1007.8 mb 0.00 in0.0 mm 0.00 in0.0 mm 0.00 in0.0 mm
07:50 AM 69.6°F20.9°C 59.8°F15.4°C 71% 2.2 mph NNW3.5 kmh NNW 8.3 mph13.4 kmh 29.77 in1008.1 mb 0.00 in0.0 mm 0.00 in0.0 mm 0.00 in0.0 mm
08:00 AM 70.9°F21.6°C 59.8°F15.4°C 68% 5.4 mph NNW8.7 kmh NNW 7.6 mph12.2 kmh 29.77 in1008.1 mb 0.00 in0.0 mm 0.00 in0.0 mm 0.00 in0.0 mm
08:10 AM 71.6°F22.0°C 59.2°F15.1°C 65% 5.4 mph NNW8.7 kmh NNW 8.3 mph13.4 kmh 29.77 in1008.1 mb 0.00 in0.0 mm 0.00 in0.0 mm 0.00 in0.0 mm
08:20 AM 72.3°F22.4°C 59.0°F15.0°C 63% 5.4 mph NNW8.7 kmh NNW 7.6 mph12.2 kmh 29.76 in1007.8 mb 0.00 in0.0 mm 0.00 in0.0 mm 0.00 in0.0 mm
08:30 AM 73.2°F22.9°C 59.5°F15.3°C 62% 3.8 mph N6.1 kmh N 7.6 mph12.2 kmh 29.77 in1008.1 mb 0.00 in0.0 mm 0.00 in0.0 mm 0.00 in0.0 mm
08:50 AM 75.6°F24.2°C 58.8°F14.9°C 56% 3.1 mph NNW5.0 kmh NNW 6.9 mph11.1 kmh 29.77 in1008.1 mb 0.00 in0.0 mm 0.00 in0.0 mm 0.00 in0.0 mm
09:00 AM 76.6°F24.8°C 60.3°F15.7°C 57% 0.7 mph NNW1.1 kmh NNW 6.0 mph9.7 kmh 29.77 in1008.1 mb 0.00 in0.0 mm 0.00 in0.0 mm 0.00 in0.0 mm
09:10 AM 79.2°F26.2°C 60.1°F15.6°C 52% 3.8 mph W6.1 kmh W 6.0 mph9.7 kmh 29.76 in1007.8 mb 0.00 in0.0 mm 0.00 in0.0 mm 0.00 in0.0 mm
09:20 AM 79.0°F26.1°C 58.2°F14.6°C 49% 3.8 mph NW6.1 kmh NW 6.9 mph11.1 kmh 29.76 in1007.8 mb 0.00 in0.0 mm 0.00 in0.0 mm 0.00 in0.0 mm
09:30 AM 80.1°F26.7°C 58.6°F14.8°C 48% 1.6 mph NNW2.6 kmh NNW 6.0 mph9.7 kmh 29.76 in1007.8 mb 0.00 in0.0 mm 0.00 in0.0 mm 0.00 in0.0 mm
09:40 AM 81.0°F27.2°C 57.7°F14.3°C 45% 2.2 mph ENE3.5 kmh ENE 6.0 mph9.7 kmh 29.76 in1007.8 mb 0.00 in0.0 mm 0.00 in0.0 mm 0.00 in0.0 mm
09:50 AM 80.8°F27.1°C 58.1°F14.5°C 46% 6.9 mph E11.1 kmh E 8.3 mph13.4 kmh 29.76 in1007.8 mb 0.00 in0.0 mm 0.00 in0.0 mm 0.00 in0.0 mm
10:00 AM 79.2°F26.2°C 56.6°F13.7°C 46% 6.0 mph WNW9.7 kmh WNW 8.3 mph13.4 kmh 29.75 in1007.5 mb 0.00 in0.0 mm 0.00 in0.0 mm 0.00 in0.0 mm
10:10 AM 78.6°F25.9°C 57.3°F14.1°C 48% 6.0 mph NW9.7 kmh NW 8.3 mph13.4 kmh 29.75 in1007.5 mb 0.00 in0.0 mm 0.00 in0.0 mm 0.00 in0.0 mm
10:20 AM 78.4°F25.8°C 55.4°F13.0°C 45% 6.0 mph SW9.7 kmh SW 9.8 mph15.8 kmh 29.75 in1007.5 mb 0.00 in0.0 mm 0.00 in0.0 mm 0.00 in0.0 mm
10:30 AM 78.8°F26.0°C 56.3°F13.5°C 46% 4.5 mph WSW7.2 kmh WSW 9.2 mph14.8 kmh 29.75 in1007.5 mb 0.00 in0.0 mm 0.00 in0.0 mm 0.00 in0.0 mm
10:40 AM 78.8°F26.0°C 56.3°F13.5°C 46% 4.5 mph N7.2 kmh N 7.6 mph12.2 kmh 29.74 in1007.1 mb 0.00 in0.0 mm 0.00 in0.0 mm 0.00 in0.0 mm
10:50 AM 79.2°F26.2°C 56.0°F13.3°C 45% 4.5 mph S7.2 kmh S 8.3 mph13.4 kmh 29.73 in1006.8 mb 0.00 in0.0 mm 0.00 in0.0 mm 0.00 in0.0 mm
11:00 AM 79.0°F26.1°C 55.9°F13.3°C 45% 5.4 mph ESE8.7 kmh ESE 7.6 mph12.2 kmh 29.73 in1006.8 mb 0.00 in0.0 mm 0.00 in0.0 mm 0.00 in0.0 mm
11:10 AM 79.2°F26.2°C 56.6°F13.7°C 46% 3.8 mph SW6.1 kmh SW 6.9 mph11.1 kmh 29.72 in1006.4 mb 0.00 in0.0 mm 0.00 in0.0 mm 0.00 in0.0 mm
11:20 AM 79.7°F26.5°C 57.1°F13.9°C 46% 5.4 mph SW8.7 kmh SW 8.3 mph13.4 kmh 29.73 in1006.8 mb 0.00 in0.0 mm 0.00 in0.0 mm 0.00 in0.0 mm
11:30 AM 79.2°F26.2°C 58.4°F14.7°C 49% 6.9 mph SE11.1 kmh SE 9.2 mph14.8 kmh 29.72 in1006.4 mb 0.00 in0.0 mm 0.00 in0.0 mm 0.00 in0.0 mm
11:40 AM 79.3°F26.3°C 58.0°F14.4°C 48% 7.6 mph E12.2 kmh E 9.8 mph15.8 kmh 29.71 in1006.1 mb 0.00 in0.0 mm 0.00 in0.0 mm 0.00 in0.0 mm
11:50 AM 79.0°F26.1°C 56.5°F13.6°C 46% 5.4 mph WSW8.7 kmh WSW 10.7 mph17.2 kmh 29.71 in1006.1 mb 0.00 in0.0 mm 0.00 in0.0 mm 0.00 in0.0 mm
12:00 PM 78.6°F25.9°C 59.6°F15.3°C 52% 5.4 mph W8.7 kmh W 9.8 mph15.8 kmh 29.71 in1006.1 mb 0.00 in0.0 mm 0.00 in0.0 mm 0.00 in0.0 mm
12:10 PM 79.2°F26.2°C 59.5°F15.3°C 51% 3.1 mph SSE5.0 kmh SSE 8.3 mph13.4 kmh 29.71 in1006.1 mb 0.00 in0.0 mm 0.00 in0.0 mm 0.00 in0.0 mm
12:20 PM 80.2°F26.8°C 59.4°F15.2°C 49% 5.4 mph N8.7 kmh N 7.6 mph12.2 kmh 29.70 in1005.8 mb 0.00 in0.0 mm 0.00 in0.0 mm 0.00 in0.0 mm
12:30 PM 80.1°F26.7°C 59.8°F15.4°C 50% 3.8 mph SSW6.1 kmh SSW 8.3 mph13.4 kmh 29.70 in1005.8 mb 0.00 in0.0 mm 0.00 in0.0 mm 0.00 in0.0 mm
12:40 PM 80.2°F26.8°C 61.1°F16.2°C 52% 5.4 mph WNW8.7 kmh WNW 10.7 mph17.2 kmh 29.69 in1005.4 mb 0.00 in0.0 mm 0.00 in0.0 mm 0.00 in0.0 mm
12:50 PM 81.1°F27.3°C 60.2°F15.7°C 49% 4.5 mph SE7.2 kmh SE 8.3 mph13.4 kmh 29.69 in1005.4 mb 0.00 in0.0 mm 0.00 in0.0 mm 0.00 in0.0 mm
01:00 PM 82.8°F28.2°C 61.1°F16.2°C 48% 5.4 mph SE8.7 kmh SE 7.6 mph12.2 kmh 29.69 in1005.4 mb 0.00 in0.0 mm 0.00 in0.0 mm 0.00 in0.0 mm
01:10 PM 82.9°F28.3°C 60.7°F15.9°C 47% 5.4 mph SE8.7 kmh SE 9.2 mph14.8 kmh 29.68 in1005.1 mb 0.00 in0.0 mm 0.00 in0.0 mm 0.00 in0.0 mm
01:20 PM 84.2°F29.0°C 60.0°F15.6°C 44% 3.8 mph SE6.1 kmh SE 6.9 mph11.1 kmh 29.68 in1005.1 mb 0.00 in0.0 mm 0.00 in0.0 mm 0.00 in0.0 mm
01:30 PM 84.7°F29.3°C 60.5°F15.8°C 44% 3.1 mph SSE5.0 kmh SSE 7.6 mph12.2 kmh 29.67 in1004.7 mb 0.00 in0.0 mm 0.00 in0.0 mm 0.00 in0.0 mm
01:40 PM 84.4°F29.1°C 56.0°F13.3°C 38% 4.5 mph SSE7.2 kmh SSE 7.6 mph12.2 kmh 29.66 in1004.4 mb 0.00 in0.0 mm 0.00 in0.0 mm 0.00 in0.0 mm
01:50 PM 84.7°F29.3°C 58.5°F14.7°C 41% 3.8 mph E6.1 kmh E 6.9 mph11.1 kmh 29.65 in1004.1 mb 0.00 in0.0 mm 0.00 in0.0 mm 0.00 in0.0 mm
02:00 PM 85.5°F29.7°C 58.4°F14.7°C 40% 3.1 mph WSW5.0 kmh WSW 8.3 mph13.4 kmh 29.65 in1004.1 mb 0.00 in0.0 mm 0.00 in0.0 mm 0.00 in0.0 mm
02:10 PM 86.2°F30.1°C 56.9°F13.8°C 37% 4.5 mph S7.2 kmh S 7.6 mph12.2 kmh 29.65 in1004.1 mb 0.00 in0.0 mm 0.00 in0.0 mm 0.00 in0.0 mm
02:20 PM 86.0°F30.0°C 57.5°F14.2°C 38% 4.5 mph ESE7.2 kmh ESE 8.3 mph13.4 kmh 29.64 in1003.7 mb 0.00 in0.0 mm 0.00 in0.0 mm 0.00 in0.0 mm
02:30 PM 86.7°F30.4°C 58.1°F14.5°C 38% 5.4 mph ESE8.7 kmh ESE 10.7 mph17.2 kmh 29.63 in1003.4 mb 0.00 in0.0 mm 0.00 in0.0 mm 0.00 in0.0 mm
02:40 PM 85.8°F29.9°C 58.8°F14.9°C 40% 3.1 mph ESE5.0 kmh ESE 7.6 mph12.2 kmh 29.63 in1003.4 mb 0.00 in0.0 mm 0.00 in0.0 mm 0.00 in0.0 mm
02:50 PM 86.2°F30.1°C 56.9°F13.8°C 37% 4.5 mph SE7.2 kmh SE 9.8 mph15.8 kmh 29.63 in1003.4 mb 0.00 in0.0 mm 0.00 in0.0 mm 0.00 in0.0 mm
03:00 PM 87.4°F30.8°C 57.3°F14.1°C 36% 3.8 mph SE6.1 kmh SE 6.9 mph11.1 kmh 29.62 in1003.0 mb 0.00 in0.0 mm 0.00 in0.0 mm 0.00 in0.0 mm
03:10 PM 88.0°F31.1°C 57.0°F13.9°C 35% 5.4 mph ESE8.7 kmh ESE 8.3 mph13.4 kmh 29.62 in1003.0 mb 0.00 in0.0 mm 0.00 in0.0 mm 0.00 in0.0 mm
03:20 PM 88.0°F31.1°C 56.2°F13.4°C 34% 3.1 mph SE5.0 kmh SE 8.3 mph13.4 kmh 29.62 in1003.0 mb 0.00 in0.0 mm 0.00 in0.0 mm 0.00 in0.0 mm
03:30 PM 87.8°F31.0°C 56.0°F13.3°C 34% 3.8 mph SE6.1 kmh SE 8.3 mph13.4 kmh 29.62 in1003.0 mb 0.00 in0.0 mm 0.00 in0.0 mm 0.00 in0.0 mm
03:40 PM 87.6°F30.9°C 55.8°F13.2°C 34% 4.5 mph E7.2 kmh E 9.8 mph15.8 kmh 29.61 in1002.7 mb 0.00 in0.0 mm 0.00 in0.0 mm 0.00 in0.0 mm
03:50 PM 87.8°F31.0°C 56.8°F13.8°C 35% 4.5 mph ESE7.2 kmh ESE 8.3 mph13.4 kmh 29.61 in1002.7 mb 0.00 in0.0 mm 0.00 in0.0 mm 0.00 in0.0 mm
04:00 PM 89.1°F31.7°C 56.3°F13.5°C 33% 4.5 mph SE7.2 kmh SE 7.6 mph12.2 kmh 29.61 in1002.7 mb 0.00 in0.0 mm 0.00 in0.0 mm 0.00 in0.0 mm
04:10 PM 89.1°F31.7°C 56.3°F13.5°C 33% 2.2 mph ESE3.5 kmh ESE 6.9 mph11.1 kmh 29.61 in1002.7 mb 0.00 in0.0 mm 0.00 in0.0 mm 0.00 in0.0 mm
04:20 PM 89.4°F31.9°C 55.7°F13.2°C 32% 3.1 mph ESE5.0 kmh ESE 8.3 mph13.4 kmh 29.60 in1002.4 mb 0.00 in0.0 mm 0.00 in0.0 mm 0.00 in0.0 mm
04:30 PM 89.1°F31.7°C 56.3°F13.5°C 33% 4.5 mph SE7.2 kmh SE 7.6 mph12.2 kmh 29.60 in1002.4 mb 0.00 in0.0 mm 0.00 in0.0 mm 0.00 in0.0 mm
04:40 PM 89.2°F31.8°C 56.4°F13.6°C 33% 5.4 mph SE8.7 kmh SE 7.6 mph12.2 kmh 29.59 in1002.0 mb 0.00 in0.0 mm 0.00 in0.0 mm 0.00 in0.0 mm
04:50 PM 89.2°F31.8°C 57.3°F14.1°C 34% 3.8 mph SE6.1 kmh SE 7.6 mph12.2 kmh 29.59 in1002.0 mb 0.00 in0.0 mm 0.00 in0.0 mm 0.00 in0.0 mm
05:00 PM 90.0°F32.2°C 57.1°F13.9°C 33% 0.7 mph ESE1.1 kmh ESE 7.6 mph12.2 kmh 29.59 in1002.0 mb 0.00 in0.0 mm 0.00 in0.0 mm 0.00 in0.0 mm
05:10 PM 89.2°F31.8°C 56.4°F13.6°C 33% 3.1 mph SE5.0 kmh SE 7.6 mph12.2 kmh 29.59 in1002.0 mb 0.00 in0.0 mm 0.00 in0.0 mm 0.00 in0.0 mm
05:20 PM 90.9°F32.7°C 57.0°F13.9°C 32% 0.7 mph ESE1.1 kmh ESE 6.9 mph11.1 kmh 29.58 in1001.7 mb 0.00 in0.0 mm 0.00 in0.0 mm 0.00 in0.0 mm
05:30 PM 91.6°F33.1°C 60.9°F16.1°C 36% 3.8 mph SE6.1 kmh SE 6.0 mph9.7 kmh 29.58 in1001.7 mb 0.00 in0.0 mm 0.00 in0.0 mm 0.00 in0.0 mm
05:40 PM 90.5°F32.5°C 59.2°F15.1°C 35% 2.2 mph SE3.5 kmh SE 6.0 mph9.7 kmh 29.58 in1001.7 mb 0.00 in0.0 mm 0.00 in0.0 mm 0.00 in0.0 mm
05:50 PM 90.9°F32.7°C 59.5°F15.3°C 35% 2.2 mph SE3.5 kmh SE 4.5 mph7.2 kmh 29.58 in1001.7 mb 0.00 in0.0 mm 0.00 in0.0 mm 0.00 in0.0 mm
06:00 PM 87.1°F30.6°C 61.9°F16.6°C 43% 2.2 mph SE3.5 kmh SE 6.0 mph9.7 kmh 29.58 in1001.7 mb 0.00 in0.0 mm 0.00 in0.0 mm 0.00 in0.0 mm
06:10 PM 83.8°F28.8°C 63.8°F17.7°C 51% 2.2 mph SW3.5 kmh SW 6.9 mph11.1 kmh 29.59 in1002.0 mb 0.00 in0.0 mm 0.00 in0.0 mm 0.00 in0.0 mm
06:20 PM 82.0°F27.8°C 65.4°F18.6°C 57% 3.1 mph SW5.0 kmh SW 3.8 mph6.1 kmh 29.59 in1002.0 mb 0.00 in0.0 mm 0.00 in0.0 mm 0.00 in0.0 mm
06:30 PM 81.1°F27.3°C 59.0°F15.0°C 47% 5.4 mph W8.7 kmh W 12.1 mph19.5 kmh 29.59 in1002.0 mb 0.00 in0.0 mm 0.00 in0.0 mm 0.00 in0.0 mm
06:40 PM 82.0°F27.8°C 56.1°F13.4°C 41% 6.0 mph NW9.7 kmh NW 18.3 mph29.5 kmh 29.59 in1002.0 mb 0.00 in0.0 mm 0.00 in0.0 mm 0.00 in0.0 mm
06:50 PM 81.3°F27.4°C 56.1°F13.4°C 42% 13.0 mph NW20.9 kmh NW 17.4 mph28.0 kmh 29.60 in1002.4 mb 0.00 in0.0 mm 0.00 in0.0 mm 0.00 in0.0 mm
07:00 PM 81.3°F27.4°C 56.1°F13.4°C 42% 4.5 mph NW7.2 kmh NW 15.9 mph25.6 kmh 29.60 in1002.4 mb 0.00 in0.0 mm 0.00 in0.0 mm 0.00 in0.0 mm
07:10 PM 80.2°F26.8°C 56.4°F13.6°C 44% 13.0 mph NW20.9 kmh NW 18.3 mph29.5 kmh 29.60 in1002.4 mb 0.00 in0.0 mm 0.00 in0.0 mm 0.00 in0.0 mm
07:20 PM 79.2°F26.2°C 56.0°F13.3°C 45% 9.2 mph NW14.8 kmh NW 20.6 mph33.2 kmh 29.60 in1002.4 mb 0.00 in0.0 mm 0.00 in0.0 mm 0.00 in0.0 mm
07:30 PM 78.6°F25.9°C 56.1°F13.4°C 46% 9.8 mph NW15.8 kmh NW 18.3 mph29.5 kmh 29.61 in1002.7 mb 0.00 in0.0 mm 0.00 in0.0 mm 0.00 in0.0 mm
07:40 PM 77.9°F25.5°C 56.1°F13.4°C 47% 7.6 mph NW12.2 kmh NW 15.9 mph25.6 kmh 29.61 in1002.7 mb 0.00 in0.0 mm 0.00 in0.0 mm 0.00 in0.0 mm
07:50 PM 77.5°F25.3°C 55.8°F13.2°C 47% 6.0 mph NW9.7 kmh NW 15.2 mph24.5 kmh 29.62 in1003.0 mb 0.00 in0.0 mm 0.00 in0.0 mm 0.00 in0.0 mm
08:00 PM 76.8°F24.9°C 56.2°F13.4°C 49% 1.6 mph NNW2.6 kmh NNW 10.7 mph17.2 kmh 29.63 in1003.4 mb 0.00 in0.0 mm 0.00 in0.0 mm 0.00 in0.0 mm
08:10 PM 75.9°F24.4°C 56.5°F13.6°C 51% 5.4 mph N8.7 kmh N 9.2 mph14.8 kmh 29.63 in1003.4 mb 0.00 in0.0 mm 0.00 in0.0 mm 0.00 in0.0 mm
08:20 PM 75.0°F23.9°C 56.2°F13.4°C 52% 6.9 mph NNW11.1 kmh NNW 9.2 mph14.8 kmh 29.63 in1003.4 mb 0.00 in0.0 mm 0.00 in0.0 mm 0.00 in0.0 mm
08:30 PM 74.3°F23.5°C 56.6°F13.7°C 54% 5.4 mph NNW8.7 kmh NNW 10.7 mph17.2 kmh 29.64 in1003.7 mb 0.00 in0.0 mm 0.00 in0.0 mm 0.00 in0.0 mm
08:40 PM 73.8°F23.2°C 56.6°F13.7°C 55% 6.0 mph N9.7 kmh N 10.7 mph17.2 kmh 29.63 in1003.4 mb 0.00 in0.0 mm 0.00 in0.0 mm 0.00 in0.0 mm
08:50 PM 73.6°F23.1°C 56.4°F13.6°C 55% 7.6 mph NNW12.2 kmh NNW 13.6 mph21.9 kmh 29.63 in1003.4 mb 0.00 in0.0 mm 0.00 in0.0 mm 0.00 in0.0 mm
09:00 PM 73.2°F22.9°C 56.1°F13.4°C 55% 5.4 mph N8.7 kmh N 16.8 mph27.0 kmh 29.64 in1003.7 mb 0.00 in0.0 mm 0.00 in0.0 mm 0.00 in0.0 mm
09:10 PM 72.9°F22.7°C 55.8°F13.2°C 55% 9.2 mph N14.8 kmh N 13.6 mph21.9 kmh 29.63 in1003.4 mb 0.00 in0.0 mm 0.00 in0.0 mm 0.00 in0.0 mm
09:20 PM 72.9°F22.7°C 55.8°F13.2°C 55% 7.6 mph NNW12.2 kmh NNW 20.6 mph33.2 kmh 29.63 in1003.4 mb 0.00 in0.0 mm 0.00 in0.0 mm 0.00 in0.0 mm
09:30 PM 72.3°F22.4°C 55.3°F12.9°C 55% 8.3 mph N13.4 kmh N 16.8 mph27.0 kmh 29.63 in1003.4 mb 0.00 in0.0 mm 0.00 in0.0 mm 0.00 in0.0 mm
09:40 PM 72.0°F22.2°C 55.9°F13.3°C 57% 6.9 mph N11.1 kmh N 13.6 mph21.9 kmh 29.63 in1003.4 mb 0.00 in0.0 mm 0.00 in0.0 mm 0.00 in0.0 mm
09:50 PM 71.8°F22.1°C 55.3°F12.9°C 56% 6.0 mph N9.7 kmh N 13.6 mph21.9 kmh 29.64 in1003.7 mb 0.00 in0.0 mm 0.00 in0.0 mm 0.00 in0.0 mm
10:00 PM 72.0°F22.2°C 54.9°F12.7°C 55% 5.4 mph N8.7 kmh N 14.5 mph23.3 kmh 29.64 in1003.7 mb 0.00 in0.0 mm 0.00 in0.0 mm 0.00 in0.0 mm
10:10 PM 71.6°F22.0°C 55.1°F12.8°C 56% 9.8 mph N15.8 kmh N 15.9 mph25.6 kmh 29.63 in1003.4 mb 0.00 in0.0 mm 0.00 in0.0 mm 0.00 in0.0 mm
10:20 PM 71.4°F21.9°C 55.4°F13.0°C 57% 8.3 mph N13.4 kmh N 14.5 mph23.3 kmh 29.63 in1003.4 mb 0.00 in0.0 mm 0.00 in0.0 mm 0.00 in0.0 mm
10:30 PM 71.1°F21.7°C 55.1°F12.8°C 57% 11.4 mph NNW18.3 kmh NNW 17.4 mph28.0 kmh 29.63 in1003.4 mb 0.00 in0.0 mm 0.00 in0.0 mm 0.00 in0.0 mm
10:40 PM 71.2°F21.8°C 54.8°F12.7°C 56% 9.8 mph NNW15.8 kmh NNW 22.8 mph36.7 kmh 29.63 in1003.4 mb 0.00 in0.0 mm 0.00 in0.0 mm 0.00 in0.0 mm
10:50 PM 71.2°F21.8°C 54.8°F12.7°C 56% 7.6 mph NW12.2 kmh NW 17.4 mph28.0 kmh 29.64 in1003.7 mb 0.00 in0.0 mm 0.00 in0.0 mm 0.00 in0.0 mm
11:00 PM 71.1°F21.7°C 55.6°F13.1°C 58% 12.1 mph NNW19.5 kmh NNW 17.4 mph28.0 kmh 29.65 in1004.1 mb 0.00 in0.0 mm 0.00 in0.0 mm 0.00 in0.0 mm
11:10 PM 70.5°F21.4°C 55.5°F13.1°C 59% 9.8 mph NW15.8 kmh NW 17.4 mph28.0 kmh 29.65 in1004.1 mb 0.00 in0.0 mm 0.00 in0.0 mm 0.00 in0.0 mm
11:20 PM 70.3°F21.3°C 55.4°F13.0°C 59% 6.9 mph NW11.1 kmh NW 16.8 mph27.0 kmh 29.65 in1004.1 mb 0.00 in0.0 mm 0.00 in0.0 mm 0.00 in0.0 mm
11:30 PM 70.0°F21.1°C 55.0°F12.8°C 59% 9.2 mph NNW14.8 kmh NNW 14.5 mph23.3 kmh 29.65 in1004.1 mb 0.00 in0.0 mm 0.00 in0.0 mm 0.00 in0.0 mm
11:40 PM 70.5°F21.4°C 54.6°F12.6°C 57% 12.1 mph NW19.5 kmh NW 18.3 mph29.5 kmh 29.65 in1004.1 mb 0.00 in0.0 mm 0.00 in0.0 mm 0.00 in0.0 mm
11:50 PM 70.2°F21.2°C 54.7°F12.6°C 58% 6.9 mph NNW11.1 kmh NNW 15.9 mph25.6 kmh 29.65 in1004.1 mb 0.00 in0.0 mm 0.00 in0.0 mm 0.00 in0.0 mm